sensor_id;sensor_type;location;lat;lon;timestamp;temperature;humidity
28835;DHT22;15969;51.536;11.884;2023-04-01T00:00:50;10.30;99.90
28835;DHT22;15969;51.536;11.884;2023-04-01T00:03:17;10.30;99.90
28835;DHT22;15969;51.536;11.884;2023-04-01T00:05:43;10.30;99.90
28835;DHT22;15969;51.536;11.884;2023-04-01T00:08:10;10.30;99.90
28835;DHT22;15969;51.536;11.884;2023-04-01T00:10:36;10.30;99.90
28835;DHT22;15969;51.536;11.884;2023-04-01T00:13:02;10.30;99.90
28835;DHT22;15969;51.536;11.884;2023-04-01T00:15:27;10.30;99.90
28835;DHT22;15969;51.536;11.884;2023-04-01T00:17:53;10.30;99.90
28835;DHT22;15969;51.536;11.884;2023-04-01T00:20:19;10.20;99.90
28835;DHT22;15969;51.536;11.884;2023-04-01T00:22:46;10.30;99.90
28835;DHT22;15969;51.536;11.884;2023-04-01T00:25:11;10.30;99.90
28835;DHT22;15969;51.536;11.884;2023-04-01T00:27:37;10.30;99.90
28835;DHT22;15969;51.536;11.884;2023-04-01T00:30:03;10.30;99.90
28835;DHT22;15969;51.536;11.884;2023-04-01T00:32:29;10.20;99.90
28835;DHT22;15969;51.536;11.884;2023-04-01T00:34:56;10.20;99.90
28835;DHT22;15969;51.536;11.884;2023-04-01T00:37:24;10.20;99.90
28835;DHT22;15969;51.536;11.884;2023-04-01T00:39:50;10.20;99.90
28835;DHT22;15969;51.536;11.884;2023-04-01T00:42:15;10.20;99.90
28835;DHT22;15969;51.536;11.884;2023-04-01T00:44:41;10.20;99.90
28835;DHT22;15969;51.536;11.884;2023-04-01T00:47:07;10.20;99.90
28835;DHT22;15969;51.536;11.884;2023-04-01T00:49:36;10.10;99.90
28835;DHT22;15969;51.536;11.884;2023-04-01T00:52:06;10.10;99.90
28835;DHT22;15969;51.536;11.884;2023-04-01T00:54:34;10.00;99.90
28835;DHT22;15969;51.536;11.884;2023-04-01T00:57:23;10.00;99.90
28835;DHT22;15969;51.536;11.884;2023-04-01T00:59:54;10.00;99.90
28835;DHT22;15969;51.536;11.884;2023-04-01T01:02:20;10.00;99.90
28835;DHT22;15969;51.536;11.884;2023-04-01T01:04:46;10.00;99.90
28835;DHT22;15969;51.536;11.884;2023-04-01T01:15:46;9.90;99.90
28835;DHT22;15969;51.536;11.884;2023-04-01T01:18:35;9.90;99.90
28835;DHT22;15969;51.536;11.884;2023-04-01T01:24:22;9.90;99.90
28835;DHT22;15969;51.536;11.884;2023-04-01T01:27:10;9.90;99.90
28835;DHT22;15969;51.536;11.884;2023-04-01T01:35:46;9.90;99.90
28835;DHT22;15969;51.536;11.884;2023-04-01T01:38:17;9.90;99.90
28835;DHT22;15969;51.536;11.884;2023-04-01T01:40:47;9.80;99.90
28835;DHT22;15969;51.536;11.884;2023-04-01T01:43:21;9.90;99.90
28835;DHT22;15969;51.536;11.884;2023-04-01T01:45:54;9.90;99.90
28835;DHT22;15969;51.536;11.884;2023-04-01T01:48:23;9.90;99.90
28835;DHT22;15969;51.536;11.884;2023-04-01T01:50:50;9.90;99.90
28835;DHT22;15969;51.536;11.884;2023-04-01T01:53:16;9.80;99.90
28835;DHT22;15969;51.536;11.884;2023-04-01T01:55:44;9.90;99.90
28835;DHT22;15969;51.536;11.884;2023-04-01T02:00:54;9.90;99.90
28835;DHT22;15969;51.536;11.884;2023-04-01T02:03:23;9.90;99.90
28835;DHT22;15969;51.536;11.884;2023-04-01T02:05:53;9.90;99.90
28835;DHT22;15969;51.536;11.884;2023-04-01T02:11:11;9.90;99.90
28835;DHT22;15969;51.536;11.884;2023-04-01T02:13:44;9.90;99.90
28835;DHT22;15969;51.536;11.884;2023-04-01T02:16:18;9.90;99.90
28835;DHT22;15969;51.536;11.884;2023-04-01T02:18:48;10.00;99.90
28835;DHT22;15969;51.536;11.884;2023-04-01T02:21:17;9.90;99.90
28835;DHT22;15969;51.536;11.884;2023-04-01T02:23:44;9.90;99.90
28835;DHT22;15969;51.536;11.884;2023-04-01T02:26:11;10.00;99.90
28835;DHT22;15969;51.536;11.884;2023-04-01T02:28:38;10.00;99.90
28835;DHT22;15969;51.536;11.884;2023-04-01T02:31:06;9.90;99.90
28835;DHT22;15969;51.536;11.884;2023-04-01T02:33:35;9.90;99.90
28835;DHT22;15969;51.536;11.884;2023-04-01T02:36:02;9.90;99.90
28835;DHT22;15969;51.536;11.884;2023-04-01T02:38:28;9.90;99.90
28835;DHT22;15969;51.536;11.884;2023-04-01T02:41:00;10.00;99.90
28835;DHT22;15969;51.536;11.884;2023-04-01T02:43:28;10.00;99.90
28835;DHT22;15969;51.536;11.884;2023-04-01T02:45:54;10.10;99.90
28835;DHT22;15969;51.536;11.884;2023-04-01T02:48:20;10.20;99.90
28835;DHT22;15969;51.536;11.884;2023-04-01T02:50:46;10.30;99.90
28835;DHT22;15969;51.536;11.884;2023-04-01T02:53:11;10.30;99.90
28835;DHT22;15969;51.536;11.884;2023-04-01T02:55:38;10.40;99.90
28835;DHT22;15969;51.536;11.884;2023-04-01T02:58:03;10.50;99.90
28835;DHT22;15969;51.536;11.884;2023-04-01T03:00:30;10.50;99.90
28835;DHT22;15969;51.536;11.884;2023-04-01T03:02:55;10.60;99.90
28835;DHT22;15969;51.536;11.884;2023-04-01T03:05:22;10.70;99.90
28835;DHT22;15969;51.536;11.884;2023-04-01T03:07:47;10.80;99.90
28835;DHT22;15969;51.536;11.884;2023-04-01T03:10:13;10.90;99.90
28835;DHT22;15969;51.536;11.884;2023-04-01T03:12:39;11.00;99.90
28835;DHT22;15969;51.536;11.884;2023-04-01T03:15:06;11.00;99.90
28835;DHT22;15969;51.536;11.884;2023-04-01T03:17:32;11.00;99.90
28835;DHT22;15969;51.536;11.884;2023-04-01T03:19:58;11.10;99.90
28835;DHT22;15969;51.536;11.884;2023-04-01T03:22:23;11.10;99.90
28835;DHT22;15969;51.536;11.884;2023-04-01T03:24:49;11.20;99.90
28835;DHT22;15969;51.536;11.884;2023-04-01T03:27:15;11.20;99.90
28835;DHT22;15969;51.536;11.884;2023-04-01T03:29:41;11.40;99.90
28835;DHT22;15969;51.536;11.884;2023-04-01T03:32:06;11.60;99.90
28835;DHT22;15969;51.536;11.884;2023-04-01T03:34:32;11.70;99.90
28835;DHT22;15969;51.536;11.884;2023-04-01T03:36:58;11.70;99.90
28835;DHT22;15969;51.536;11.884;2023-04-01T03:39:23;11.80;99.90
28835;DHT22;15969;51.536;11.884;2023-04-01T03:41:50;11.90;99.90
28835;DHT22;15969;51.536;11.884;2023-04-01T03:44:16;11.90;99.90
28835;DHT22;15969;51.536;11.884;2023-04-01T03:46:41;12.00;99.90
28835;DHT22;15969;51.536;11.884;2023-04-01T03:49:11;12.00;99.90
28835;DHT22;15969;51.536;11.884;2023-04-01T03:51:41;12.00;99.90
28835;DHT22;15969;51.536;11.884;2023-04-01T03:54:09;11.90;99.90
28835;DHT22;15969;51.536;11.884;2023-04-01T03:56:35;11.80;99.90
28835;DHT22;15969;51.536;11.884;2023-04-01T03:59:04;11.70;99.90
28835;DHT22;15969;51.536;11.884;2023-04-01T04:01:30;11.60;99.90
28835;DHT22;15969;51.536;11.884;2023-04-01T04:03:56;11.80;99.90
28835;DHT22;15969;51.536;11.884;2023-04-01T04:06:22;11.90;99.90
28835;DHT22;15969;51.536;11.884;2023-04-01T04:08:49;12.10;99.90
28835;DHT22;15969;51.536;11.884;2023-04-01T04:11:15;12.00;99.90
28835;DHT22;15969;51.536;11.884;2023-04-01T04:13:41;11.80;99.90
28835;DHT22;15969;51.536;11.884;2023-04-01T04:16:07;11.50;99.90
28835;DHT22;15969;51.536;11.884;2023-04-01T04:18:35;11.10;99.90
28835;DHT22;15969;51.536;11.884;2023-04-01T04:21:02;10.90;99.90
28835;DHT22;15969;51.536;11.884;2023-04-01T04:23:29;10.70;99.90
28835;DHT22;15969;51.536;11.884;2023-04-01T04:26:01;10.60;99.90
28835;DHT22;15969;51.536;11.884;2023-04-01T04:28:30;10.50;99.90
28835;DHT22;15969;51.536;11.884;2023-04-01T04:30:56;10.40;99.90
28835;DHT22;15969;51.536;11.884;2023-04-01T04:33:22;10.30;99.90
28835;DHT22;15969;51.536;11.884;2023-04-01T04:35:48;10.30;99.90
28835;DHT22;15969;51.536;11.884;2023-04-01T04:38:15;10.30;99.90
28835;DHT22;15969;51.536;11.884;2023-04-01T04:40:42;10.30;99.90
28835;DHT22;15969;51.536;11.884;2023-04-01T04:43:11;10.30;99.90
28835;DHT22;15969;51.536;11.884;2023-04-01T04:45:37;10.40;99.90
28835;DHT22;15969;51.536;11.884;2023-04-01T04:48:03;10.40;99.90
28835;DHT22;15969;51.536;11.884;2023-04-01T04:50:28;10.50;99.90
28835;DHT22;15969;51.536;11.884;2023-04-01T04:52:54;10.50;99.90
28835;DHT22;15969;51.536;11.884;2023-04-01T04:55:20;10.70;99.90
28835;DHT22;15969;51.536;11.884;2023-04-01T04:57:46;10.70;99.90
28835;DHT22;15969;51.536;11.884;2023-04-01T05:00:12;10.70;99.90
28835;DHT22;15969;51.536;11.884;2023-04-01T05:02:38;10.70;99.90
28835;DHT22;15969;51.536;11.884;2023-04-01T05:05:04;10.60;99.90
28835;DHT22;15969;51.536;11.884;2023-04-01T05:07:30;10.60;99.90
28835;DHT22;15969;51.536;11.884;2023-04-01T05:09:56;10.60;99.90
28835;DHT22;15969;51.536;11.884;2023-04-01T05:12:21;10.50;99.90
28835;DHT22;15969;51.536;11.884;2023-04-01T05:14:47;10.50;99.90
28835;DHT22;15969;51.536;11.884;2023-04-01T05:17:13;10.50;99.90
28835;DHT22;15969;51.536;11.884;2023-04-01T05:19:39;10.50;99.90
28835;DHT22;15969;51.536;11.884;2023-04-01T05:22:05;10.60;99.90
28835;DHT22;15969;51.536;11.884;2023-04-01T05:24:32;10.50;99.90
28835;DHT22;15969;51.536;11.884;2023-04-01T05:26:58;10.50;99.90
28835;DHT22;15969;51.536;11.884;2023-04-01T05:29:25;10.50;99.90
28835;DHT22;15969;51.536;11.884;2023-04-01T05:31:51;10.50;99.90
28835;DHT22;15969;51.536;11.884;2023-04-01T05:34:17;10.50;99.90
28835;DHT22;15969;51.536;11.884;2023-04-01T05:36:43;10.50;99.90
28835;DHT22;15969;51.536;11.884;2023-04-01T05:39:09;10.50;99.90
28835;DHT22;15969;51.536;11.884;2023-04-01T05:41:35;10.50;99.90
28835;DHT22;15969;51.536;11.884;2023-04-01T05:44:02;10.40;99.90
28835;DHT22;15969;51.536;11.884;2023-04-01T05:46:28;10.50;99.90
28835;DHT22;15969;51.536;11.884;2023-04-01T05:48:54;10.50;99.90
28835;DHT22;15969;51.536;11.884;2023-04-01T05:51:20;10.50;99.90
28835;DHT22;15969;51.536;11.884;2023-04-01T05:53:45;10.60;99.90
28835;DHT22;15969;51.536;11.884;2023-04-01T05:56:11;10.60;99.90
28835;DHT22;15969;51.536;11.884;2023-04-01T05:58:37;10.70;99.90
28835;DHT22;15969;51.536;11.884;2023-04-01T06:01:05;10.70;99.90
28835;DHT22;15969;51.536;11.884;2023-04-01T06:03:33;10.80;99.90
28835;DHT22;15969;51.536;11.884;2023-04-01T06:05:58;10.80;99.90
28835;DHT22;15969;51.536;11.884;2023-04-01T06:08:26;10.90;99.90
28835;DHT22;15969;51.536;11.884;2023-04-01T06:14:10;11.10;99.90
28835;DHT22;15969;51.536;11.884;2023-04-01T06:19:32;11.10;99.90
28835;DHT22;15969;51.536;11.884;2023-04-01T06:38:01;11.40;99.90
28835;DHT22;15969;51.536;11.884;2023-04-01T06:43:52;11.40;99.90
28835;DHT22;15969;51.536;11.884;2023-04-01T06:46:58;11.50;99.90
28835;DHT22;15969;51.536;11.884;2023-04-01T06:49:40;11.50;99.90
28835;DHT22;15969;51.536;11.884;2023-04-01T06:52:20;11.50;99.90
28835;DHT22;15969;51.536;11.884;2023-04-01T06:55:21;11.50;99.90
28835;DHT22;15969;51.536;11.884;2023-04-01T06:57:53;11.60;99.90
28835;DHT22;15969;51.536;11.884;2023-04-01T07:00:31;11.60;99.90
28835;DHT22;15969;51.536;11.884;2023-04-01T07:06:03;11.60;99.90
28835;DHT22;15969;51.536;11.884;2023-04-01T07:08:33;11.70;99.90
28835;DHT22;15969;51.536;11.884;2023-04-01T07:11:04;11.70;99.90
28835;DHT22;15969;51.536;11.884;2023-04-01T07:14:12;11.70;99.90
28835;DHT22;15969;51.536;11.884;2023-04-01T07:16:47;11.80;99.90
28835;DHT22;15969;51.536;11.884;2023-04-01T07:19:21;11.80;99.90
28835;DHT22;15969;51.536;11.884;2023-04-01T07:21:56;11.90;99.90
28835;DHT22;15969;51.536;11.884;2023-04-01T07:24:29;11.90;99.90
28835;DHT22;15969;51.536;11.884;2023-04-01T07:26:58;12.00;99.90
28835;DHT22;15969;51.536;11.884;2023-04-01T07:29:26;12.10;99.90
28835;DHT22;15969;51.536;11.884;2023-04-01T07:38:35;12.30;99.90
28835;DHT22;15969;51.536;11.884;2023-04-01T07:47:50;12.50;99.90
28835;DHT22;15969;51.536;11.884;2023-04-01T07:50:29;12.60;99.90
28835;DHT22;15969;51.536;11.884;2023-04-01T07:55:54;12.70;99.90
28835;DHT22;15969;51.536;11.884;2023-04-01T07:58:39;12.80;99.90
28835;DHT22;15969;51.536;11.884;2023-04-01T08:04:34;12.90;99.90
28835;DHT22;15969;51.536;11.884;2023-04-01T08:07:25;12.90;99.90
28835;DHT22;15969;51.536;11.884;2023-04-01T08:10:22;12.90;99.90
28835;DHT22;15969;51.536;11.884;2023-04-01T08:13:25;12.90;99.90
28835;DHT22;15969;51.536;11.884;2023-04-01T08:19:15;13.10;99.90
28835;DHT22;15969;51.536;11.884;2023-04-01T08:21:52;13.10;99.90
28835;DHT22;15969;51.536;11.884;2023-04-01T08:24:29;13.20;99.90
28835;DHT22;15969;51.536;11.884;2023-04-01T08:27:49;13.20;99.90
28835;DHT22;15969;51.536;11.884;2023-04-01T08:30:24;13.40;99.90
28835;DHT22;15969;51.536;11.884;2023-04-01T08:32:56;13.40;99.90
28835;DHT22;15969;51.536;11.884;2023-04-01T08:35:29;13.40;99.90
28835;DHT22;15969;51.536;11.884;2023-04-01T08:38:01;13.50;99.90
28835;DHT22;15969;51.536;11.884;2023-04-01T08:43:42;13.60;99.90
28835;DHT22;15969;51.536;11.884;2023-04-01T08:58:42;13.70;99.90
28835;DHT22;15969;51.536;11.884;2023-04-01T09:12:45;14.00;99.90
28835;DHT22;15969;51.536;11.884;2023-04-01T09:18:49;14.30;99.90
28835;DHT22;15969;51.536;11.884;2023-04-01T09:21:50;14.50;99.90
28835;DHT22;15969;51.536;11.884;2023-04-01T09:27:29;14.50;99.90
28835;DHT22;15969;51.536;11.884;2023-04-01T09:33:59;14.60;99.90
28835;DHT22;15969;51.536;11.884;2023-04-01T09:36:50;14.60;99.90
28835;DHT22;15969;51.536;11.884;2023-04-01T09:39:49;14.60;99.90
28835;DHT22;15969;51.536;11.884;2023-04-01T09:42:35;14.60;99.90
28835;DHT22;15969;51.536;11.884;2023-04-01T09:48:21;14.60;99.90
28835;DHT22;15969;51.536;11.884;2023-04-01T09:51:22;14.60;99.90
28835;DHT22;15969;51.536;11.884;2023-04-01T10:09:42;15.00;99.90
28835;DHT22;15969;51.536;11.884;2023-04-01T10:21:16;14.80;99.90
28835;DHT22;15969;51.536;11.884;2023-04-01T10:24:32;14.70;99.90
28835;DHT22;15969;51.536;11.884;2023-04-01T10:27:57;14.70;99.90
28835;DHT22;15969;51.536;11.884;2023-04-01T10:36:57;14.70;99.90
28835;DHT22;15969;51.536;11.884;2023-04-01T10:50:53;14.90;99.90
28835;DHT22;15969;51.536;11.884;2023-04-01T10:56:59;15.00;99.90
28835;DHT22;15969;51.536;11.884;2023-04-01T11:03:32;14.90;99.90
28835;DHT22;15969;51.536;11.884;2023-04-01T11:19:13;14.60;99.90
28835;DHT22;15969;51.536;11.884;2023-04-01T11:22:30;14.70;99.90
28835;DHT22;15969;51.536;11.884;2023-04-01T11:28:20;14.90;99.90
28835;DHT22;15969;51.536;11.884;2023-04-01T11:31:23;15.10;99.90
28835;DHT22;15969;51.536;11.884;2023-04-01T11:34:32;15.20;99.90
28835;DHT22;15969;51.536;11.884;2023-04-01T11:37:06;15.30;99.90
28835;DHT22;15969;51.536;11.884;2023-04-01T11:40:27;15.30;99.90
28835;DHT22;15969;51.536;11.884;2023-04-01T11:43:26;15.20;99.90
28835;DHT22;15969;51.536;11.884;2023-04-01T11:49:25;15.30;99.90
28835;DHT22;15969;51.536;11.884;2023-04-01T11:55:35;15.40;99.90
28835;DHT22;15969;51.536;11.884;2023-04-01T12:01:13;15.30;99.90
28835;DHT22;15969;51.536;11.884;2023-04-01T12:03:59;15.40;99.90
28835;DHT22;15969;51.536;11.884;2023-04-01T12:06:38;15.40;99.90
28835;DHT22;15969;51.536;11.884;2023-04-01T12:09:33;15.40;99.90
28835;DHT22;15969;51.536;11.884;2023-04-01T12:12:29;15.40;99.90
28835;DHT22;15969;51.536;11.884;2023-04-01T12:18:15;15.40;99.90
28835;DHT22;15969;51.536;11.884;2023-04-01T12:20:57;15.30;99.90
28835;DHT22;15969;51.536;11.884;2023-04-01T12:23:51;15.10;99.90
28835;DHT22;15969;51.536;11.884;2023-04-01T12:26:35;15.10;99.90
28835;DHT22;15969;51.536;11.884;2023-04-01T12:46:15;14.70;99.90
28835;DHT22;15969;51.536;11.884;2023-04-01T12:52:07;14.60;99.90
28835;DHT22;15969;51.536;11.884;2023-04-01T12:57:51;14.50;99.90
28835;DHT22;15969;51.536;11.884;2023-04-01T13:01:09;14.50;99.90
28835;DHT22;15969;51.536;11.884;2023-04-01T13:07:16;14.50;99.90
28835;DHT22;15969;51.536;11.884;2023-04-01T13:10:08;14.50;99.90
28835;DHT22;15969;51.536;11.884;2023-04-01T13:13:07;14.60;99.90
28835;DHT22;15969;51.536;11.884;2023-04-01T13:16:21;14.70;99.90
28835;DHT22;15969;51.536;11.884;2023-04-01T13:22:07;14.80;99.90
28835;DHT22;15969;51.536;11.884;2023-04-01T13:24:55;14.80;99.90
28835;DHT22;15969;51.536;11.884;2023-04-01T13:27:51;14.80;99.90
28835;DHT22;15969;51.536;11.884;2023-04-01T13:30:53;14.90;99.90
28835;DHT22;15969;51.536;11.884;2023-04-01T13:33:31;14.80;99.90
28835;DHT22;15969;51.536;11.884;2023-04-01T13:36:25;14.70;99.90
28835;DHT22;15969;51.536;11.884;2023-04-01T13:39:23;14.70;99.90
28835;DHT22;15969;51.536;11.884;2023-04-01T13:42:16;14.70;99.90
28835;DHT22;15969;51.536;11.884;2023-04-01T13:45:46;14.70;99.90
28835;DHT22;15969;51.536;11.884;2023-04-01T13:54:40;14.60;99.90
28835;DHT22;15969;51.536;11.884;2023-04-01T14:01:23;14.70;99.90
28835;DHT22;15969;51.536;11.884;2023-04-01T14:07:08;14.60;99.90
28835;DHT22;15969;51.536;11.884;2023-04-01T14:10:07;14.50;99.90
28835;DHT22;15969;51.536;11.884;2023-04-01T14:13:00;14.40;99.90
28835;DHT22;15969;51.536;11.884;2023-04-01T14:15:36;14.50;99.90
28835;DHT22;15969;51.536;11.884;2023-04-01T14:18:42;14.30;99.90
28835;DHT22;15969;51.536;11.884;2023-04-01T14:21:26;14.30;99.90
28835;DHT22;15969;51.536;11.884;2023-04-01T14:24:22;14.20;99.90
28835;DHT22;15969;51.536;11.884;2023-04-01T14:39:56;14.20;99.90
28835;DHT22;15969;51.536;11.884;2023-04-01T14:51:15;14.20;99.90
28835;DHT22;15969;51.536;11.884;2023-04-01T14:53:51;14.20;99.90
28835;DHT22;15969;51.536;11.884;2023-04-01T14:59:14;14.20;99.90
28835;DHT22;15969;51.536;11.884;2023-04-01T15:02:01;14.20;99.90
28835;DHT22;15969;51.536;11.884;2023-04-01T15:04:41;14.20;99.90
28835;DHT22;15969;51.536;11.884;2023-04-01T15:22:37;13.80;99.90
28835;DHT22;15969;51.536;11.884;2023-04-01T15:25:33;13.70;99.90
28835;DHT22;15969;51.536;11.884;2023-04-01T15:31:21;13.70;99.90
28835;DHT22;15969;51.536;11.884;2023-04-01T15:39:58;13.60;99.90
28835;DHT22;15969;51.536;11.884;2023-04-01T15:48:31;13.50;99.90
28835;DHT22;15969;51.536;11.884;2023-04-01T15:58:11;13.40;99.90
28835;DHT22;15969;51.536;11.884;2023-04-01T16:00:57;13.40;99.90
28835;DHT22;15969;51.536;11.884;2023-04-01T16:07:25;13.40;99.90
28835;DHT22;15969;51.536;11.884;2023-04-01T16:09:59;13.40;99.90
28835;DHT22;15969;51.536;11.884;2023-04-01T16:13:03;13.40;99.90
28835;DHT22;15969;51.536;11.884;2023-04-01T16:16:24;13.40;99.90
28835;DHT22;15969;51.536;11.884;2023-04-01T16:22:41;13.50;99.90
28835;DHT22;15969;51.536;11.884;2023-04-01T16:25:21;13.50;99.90
28835;DHT22;15969;51.536;11.884;2023-04-01T16:28:04;13.40;99.90
28835;DHT22;15969;51.536;11.884;2023-04-01T16:31:23;13.40;99.90
28835;DHT22;15969;51.536;11.884;2023-04-01T16:36:51;13.30;99.90
28835;DHT22;15969;51.536;11.884;2023-04-01T16:39:36;13.30;99.90
28835;DHT22;15969;51.536;11.884;2023-04-01T16:42:40;13.30;99.90
28835;DHT22;15969;51.536;11.884;2023-04-01T16:45:33;13.30;99.90
28835;DHT22;15969;51.536;11.884;2023-04-01T16:51:20;13.20;99.90
28835;DHT22;15969;51.536;11.884;2023-04-01T16:56:56;13.10;99.90
28835;DHT22;15969;51.536;11.884;2023-04-01T16:59:38;13.10;99.90
28835;DHT22;15969;51.536;11.884;2023-04-01T17:10:35;12.90;99.90
28835;DHT22;15969;51.536;11.884;2023-04-01T17:13:34;12.90;99.90
28835;DHT22;15969;51.536;11.884;2023-04-01T17:16:23;12.90;99.90
28835;DHT22;15969;51.536;11.884;2023-04-01T17:22:25;12.90;99.90
28835;DHT22;15969;51.536;11.884;2023-04-01T17:27:46;12.90;99.90
28835;DHT22;15969;51.536;11.884;2023-04-01T17:30:35;12.80;99.90
28835;DHT22;15969;51.536;11.884;2023-04-01T17:36:16;12.80;99.90
28835;DHT22;15969;51.536;11.884;2023-04-01T17:45:04;12.70;99.90
28835;DHT22;15969;51.536;11.884;2023-04-01T17:48:01;12.60;99.90
28835;DHT22;15969;51.536;11.884;2023-04-01T17:59:36;12.50;99.90
28835;DHT22;15969;51.536;11.884;2023-04-01T18:02:15;12.40;99.90
28835;DHT22;15969;51.536;11.884;2023-04-01T18:11:10;12.30;99.90
28835;DHT22;15969;51.536;11.884;2023-04-01T18:14:23;12.30;99.90
28835;DHT22;15969;51.536;11.884;2023-04-01T18:16:56;12.20;99.90
28835;DHT22;15969;51.536;11.884;2023-04-01T18:19:43;12.20;99.90
28835;DHT22;15969;51.536;11.884;2023-04-01T18:22:44;12.20;99.90
28835;DHT22;15969;51.536;11.884;2023-04-01T18:25:32;12.20;99.90
28835;DHT22;15969;51.536;11.884;2023-04-01T18:28:22;12.20;99.90
28835;DHT22;15969;51.536;11.884;2023-04-01T18:39:00;11.60;99.90
28835;DHT22;15969;51.536;11.884;2023-04-01T18:41:40;11.50;99.90
28835;DHT22;15969;51.536;11.884;2023-04-01T18:47:43;11.30;99.90
28835;DHT22;15969;51.536;11.884;2023-04-01T18:50:27;11.20;99.90
28835;DHT22;15969;51.536;11.884;2023-04-01T18:55:47;11.10;99.90
28835;DHT22;15969;51.536;11.884;2023-04-01T18:58:22;10.90;99.90
28835;DHT22;15969;51.536;11.884;2023-04-01T19:03:55;10.80;99.90
28835;DHT22;15969;51.536;11.884;2023-04-01T19:06:33;10.70;99.90
28835;DHT22;15969;51.536;11.884;2023-04-01T19:12:32;10.50;99.90
28835;DHT22;15969;51.536;11.884;2023-04-01T19:15:27;10.50;99.90
28835;DHT22;15969;51.536;11.884;2023-04-01T19:24:25;10.40;99.90
28835;DHT22;15969;51.536;11.884;2023-04-01T19:27:34;10.30;99.90
28835;DHT22;15969;51.536;11.884;2023-04-01T19:30:23;10.20;99.90
28835;DHT22;15969;51.536;11.884;2023-04-01T19:36:11;10.00;99.90
28835;DHT22;15969;51.536;11.884;2023-04-01T19:42:11;10.00;99.90
28835;DHT22;15969;51.536;11.884;2023-04-01T19:51:37;9.90;99.90
28835;DHT22;15969;51.536;11.884;2023-04-01T19:58:00;9.80;99.90
28835;DHT22;15969;51.536;11.884;2023-04-01T20:05:56;9.60;99.90
28835;DHT22;15969;51.536;11.884;2023-04-01T20:11:57;9.70;99.90
28835;DHT22;15969;51.536;11.884;2023-04-01T20:14:46;9.60;99.90
28835;DHT22;15969;51.536;11.884;2023-04-01T20:17:21;9.60;99.90
28835;DHT22;15969;51.536;11.884;2023-04-01T20:25:43;9.40;99.90
28835;DHT22;15969;51.536;11.884;2023-04-01T20:28:20;9.40;99.90
28835;DHT22;15969;51.536;11.884;2023-04-01T20:31:06;9.30;99.90
28835;DHT22;15969;51.536;11.884;2023-04-01T20:37:02;9.20;99.90
28835;DHT22;15969;51.536;11.884;2023-04-01T20:48:30;9.10;99.90
28835;DHT22;15969;51.536;11.884;2023-04-01T20:51:07;9.00;99.90
28835;DHT22;15969;51.536;11.884;2023-04-01T21:02:33;8.80;99.90
28835;DHT22;15969;51.536;11.884;2023-04-01T21:05:21;8.80;99.90
28835;DHT22;15969;51.536;11.884;2023-04-01T21:14:32;8.70;99.90
28835;DHT22;15969;51.536;11.884;2023-04-01T21:17:30;8.50;99.90
28835;DHT22;15969;51.536;11.884;2023-04-01T21:20:34;8.60;99.90
28835;DHT22;15969;51.536;11.884;2023-04-01T21:23:30;8.50;99.90
28835;DHT22;15969;51.536;11.884;2023-04-01T21:29:26;8.60;99.90
28835;DHT22;15969;51.536;11.884;2023-04-01T21:35:26;8.40;99.90
28835;DHT22;15969;51.536;11.884;2023-04-01T21:42:01;8.40;99.90
28835;DHT22;15969;51.536;11.884;2023-04-01T21:44:43;8.50;99.90
28835;DHT22;15969;51.536;11.884;2023-04-01T21:47:42;8.40;99.90
28835;DHT22;15969;51.536;11.884;2023-04-01T21:50:52;8.40;99.90
28835;DHT22;15969;51.536;11.884;2023-04-01T21:53:44;8.30;99.90
28835;DHT22;15969;51.536;11.884;2023-04-01T22:05:25;8.10;99.90
28835;DHT22;15969;51.536;11.884;2023-04-01T22:11:05;8.00;99.90
28835;DHT22;15969;51.536;11.884;2023-04-01T22:13:43;7.90;99.90
28835;DHT22;15969;51.536;11.884;2023-04-01T22:16:56;7.90;99.90
28835;DHT22;15969;51.536;11.884;2023-04-01T22:22:55;7.90;99.90
28835;DHT22;15969;51.536;11.884;2023-04-01T22:26:04;7.90;99.90
28835;DHT22;15969;51.536;11.884;2023-04-01T22:28:44;7.80;99.90
28835;DHT22;15969;51.536;11.884;2023-04-01T22:31:22;7.80;99.90
28835;DHT22;15969;51.536;11.884;2023-04-01T22:37:00;7.70;99.90
28835;DHT22;15969;51.536;11.884;2023-04-01T22:40:08;7.70;99.90
28835;DHT22;15969;51.536;11.884;2023-04-01T22:42:45;7.70;99.90
28835;DHT22;15969;51.536;11.884;2023-04-01T22:48:01;7.70;99.90
28835;DHT22;15969;51.536;11.884;2023-04-01T22:50:50;7.70;99.90
28835;DHT22;15969;51.536;11.884;2023-04-01T22:56:46;7.60;99.90
28835;DHT22;15969;51.536;11.884;2023-04-01T22:59:38;7.50;99.90
28835;DHT22;15969;51.536;11.884;2023-04-01T23:02:33;7.30;99.90
28835;DHT22;15969;51.536;11.884;2023-04-01T23:05:05;7.30;99.90
28835;DHT22;15969;51.536;11.884;2023-04-01T23:10:42;7.30;99.90
28835;DHT22;15969;51.536;11.884;2023-04-01T23:13:18;7.40;99.90
28835;DHT22;15969;51.536;11.884;2023-04-01T23:15:46;7.40;99.90
28835;DHT22;15969;51.536;11.884;2023-04-01T23:18:25;7.30;99.90
28835;DHT22;15969;51.536;11.884;2023-04-01T23:21:35;7.30;99.90
28835;DHT22;15969;51.536;11.884;2023-04-01T23:24:18;7.30;99.90
28835;DHT22;15969;51.536;11.884;2023-04-01T23:29:38;7.20;99.90
28835;DHT22;15969;51.536;11.884;2023-04-01T23:32:10;7.10;99.90
28835;DHT22;15969;51.536;11.884;2023-04-01T23:34:39;7.10;99.90
28835;DHT22;15969;51.536;11.884;2023-04-01T23:37:09;7.20;99.90
28835;DHT22;15969;51.536;11.884;2023-04-01T23:39:39;7.20;99.90
28835;DHT22;15969;51.536;11.884;2023-04-01T23:42:07;7.10;99.90
28835;DHT22;15969;51.536;11.884;2023-04-01T23:44:39;7.10;99.90
28835;DHT22;15969;51.536;11.884;2023-04-01T23:47:06;7.00;99.90
28835;DHT22;15969;51.536;11.884;2023-04-01T23:49:44;7.10;99.90
28835;DHT22;15969;51.536;11.884;2023-04-01T23:52:17;7.00;99.90
28835;DHT22;15969;51.536;11.884;2023-04-01T23:54:53;6.90;99.90
28835;DHT22;15969;51.536;11.884;2023-04-01T23:57:30;7.00;99.90
